createdAt,value
2023-02-12T00:02:10.516Z,98639.50
2023-02-12T00:04:42.193Z,98639.28
2023-02-12T00:07:13.809Z,98643.56
2023-02-12T00:09:45.425Z,98647.25
2023-02-12T00:12:17.264Z,98642.75
2023-02-12T00:14:48.828Z,98644.22
2023-02-12T00:17:20.485Z,98655.38
2023-02-12T00:19:52.141Z,98654.03
2023-02-12T00:22:23.763Z,98648.47
2023-02-12T00:24:55.985Z,98656.59
2023-02-12T00:27:27.570Z,98649.66
2023-02-12T00:29:59.846Z,98653.31
2023-02-12T00:32:31.425Z,98657.00
2023-02-12T00:35:03.946Z,98656.59
2023-02-12T00:37:35.503Z,98652.56
2023-02-12T00:40:07.810Z,98660.28
2023-02-12T00:42:39.516Z,98660.25
2023-02-12T00:45:11.141Z,98661.88
2023-02-12T00:47:42.796Z,98657.84
2023-02-12T00:50:14.794Z,98657.00
2023-02-12T00:52:46.376Z,98665.56
2023-02-12T00:55:18.113Z,98666.56
2023-02-12T00:57:49.660Z,98670.97
2023-02-12T01:00:21.581Z,98673.28
2023-02-12T01:02:53.217Z,98667.59
2023-02-12T01:05:25.014Z,98669.19
2023-02-12T01:07:57.136Z,98667.34
2023-02-12T01:10:29.635Z,98667.38
2023-02-12T01:13:01.242Z,98664.75
2023-02-12T01:15:33.756Z,98662.50
2023-02-12T01:18:05.392Z,98674.81
2023-02-12T01:20:37.116Z,98677.31
2023-02-12T01:23:08.821Z,98673.25
2023-02-12T01:25:40.443Z,98675.31
2023-02-12T01:28:12.092Z,98677.81
2023-02-12T01:30:43.702Z,98669.56
2023-02-12T01:33:15.319Z,98665.72
2023-02-12T01:35:46.898Z,98663.09
2023-02-12T01:38:18.455Z,98660.69
2023-02-12T01:40:50.357Z,98650.50
2023-02-12T01:43:21.984Z,98659.19
2023-02-12T01:45:54.133Z,98662.25
2023-02-12T01:48:33.657Z,98658.03
2023-02-12T01:51:10.628Z,98646.03
2023-02-12T01:53:49.073Z,98636.47
2023-02-12T01:56:22.636Z,98636.50
2023-02-12T01:58:56.191Z,98640.53
2023-02-12T02:01:32.133Z,98638.09
2023-02-12T02:04:17.334Z,98638.28
2023-02-12T02:06:57.043Z,98623.28
2023-02-12T02:09:30.854Z,98630.16
2023-02-12T02:12:03.788Z,98619.41
2023-02-12T02:14:37.350Z,98625.34
2023-02-12T02:17:32.997Z,98620.00
2023-02-12T02:20:33.063Z,98620.78
2023-02-12T02:23:16.789Z,98620.34
2023-02-12T02:26:10.690Z,98617.50
2023-02-12T02:29:00.528Z,98618.00
2023-02-12T02:32:06.303Z,98618.66
2023-02-12T02:34:48.231Z,98614.03
2023-02-12T02:37:32.724Z,98618.38
2023-02-12T02:40:04.202Z,98615.00
2023-02-12T02:42:52.022Z,98614.88
2023-02-12T02:45:47.127Z,98621.47
2023-02-12T02:48:26.751Z,98612.66
2023-02-12T02:51:06.401Z,98608.88
2023-02-12T02:54:03.487Z,98612.56
2023-02-12T02:56:39.255Z,98622.56
2023-02-12T02:59:24.348Z,98619.31
2023-02-12T03:02:06.964Z,98615.91
2023-02-12T03:04:50.054Z,98618.63
2023-02-12T03:07:31.282Z,98616.31
2023-02-12T03:10:12.469Z,98607.63
2023-02-12T03:13:00.764Z,98610.69
2023-02-12T03:15:41.934Z,98609.09
2023-02-12T03:18:59.081Z,98607.06
2023-02-12T03:21:55.806Z,98608.03
2023-02-12T03:24:38.898Z,98621.13
2023-02-12T03:27:17.559Z,98614.94
2023-02-12T03:29:49.358Z,98610.41
2023-02-12T03:32:28.766Z,98616.47
2023-02-12T03:35:27.471Z,98620.16
2023-02-12T03:38:14.088Z,98616.75
2023-02-12T03:40:58.827Z,98618.97
2023-02-12T03:43:36.293Z,98619.56
2023-02-12T03:46:22.232Z,98623.97
2023-02-12T03:49:10.126Z,98620.31
2023-02-12T03:51:45.514Z,98629.28
2023-02-12T03:54:21.264Z,98620.78
2023-02-12T03:57:19.311Z,98622.53
2023-02-12T03:59:51.586Z,98619.03
2023-02-12T04:02:23.239Z,98626.69
2023-02-12T04:04:54.906Z,98634.19
2023-02-12T04:07:26.575Z,98624.47
2023-02-12T04:09:58.422Z,98630.41
2023-02-12T04:12:40.848Z,98630.09
2023-02-12T04:15:15.301Z,98620.63
2023-02-12T04:18:21.226Z,98626.19
2023-02-12T04:21:10.010Z,98631.88
2023-02-12T04:24:03.248Z,98621.53
2023-02-12T04:26:49.195Z,98629.28
2023-02-12T04:29:42.863Z,98615.78
2023-02-12T04:32:14.473Z,98619.56
2023-02-12T04:34:46.165Z,98624.25
2023-02-12T04:37:46.223Z,98621.84
2023-02-12T04:40:22.702Z,98617.38
2023-02-12T04:42:54.739Z,98617.16
2023-02-12T04:45:32.409Z,98627.66
2023-02-12T04:48:05.322Z,98631.97
2023-02-12T04:50:43.406Z,98624.06
2023-02-12T04:53:15.005Z,98625.25
2023-02-12T04:55:46.834Z,98629.13
2023-02-12T04:58:19.028Z,98623.56
2023-02-12T05:00:50.608Z,98608.38
2023-02-12T05:03:22.180Z,98616.91
2023-02-12T05:05:53.835Z,98616.69
2023-02-12T05:08:25.569Z,98624.63
2023-02-12T05:10:57.192Z,98628.28
2023-02-12T05:13:28.794Z,98624.59
2023-02-12T05:16:03.368Z,98623.91
2023-02-12T05:18:35.877Z,98618.72
2023-02-12T05:21:08.026Z,98613.59
2023-02-12T05:23:41.449Z,98612.16
2023-02-12T05:26:16.577Z,98609.56
2023-02-12T05:28:48.548Z,98614.50
2023-02-12T05:31:21.822Z,98620.44
2023-02-12T05:33:53.456Z,98614.25
2023-02-12T05:36:25.412Z,98618.31
2023-02-12T05:38:58.896Z,98606.25
2023-02-12T05:41:30.473Z,98618.09
2023-02-12T05:44:05.859Z,98617.88
2023-02-12T05:46:38.810Z,98615.28
2023-02-12T05:49:11.043Z,98619.53
2023-02-12T05:51:42.796Z,98613.91
2023-02-12T05:54:14.412Z,98618.47
2023-02-12T05:56:48.055Z,98617.56
2023-02-12T05:59:22.665Z,98615.56
2023-02-12T06:01:54.266Z,98614.56
2023-02-12T06:04:28.937Z,98617.31
2023-02-12T06:07:01.062Z,98626.41
2023-02-12T06:09:34.398Z,98628.78
2023-02-12T06:12:06.085Z,98629.56
2023-02-12T06:14:37.725Z,98625.94
2023-02-12T06:17:09.974Z,98624.56
2023-02-12T06:19:41.556Z,98624.66
2023-02-12T06:22:13.179Z,98628.69
2023-02-12T06:24:44.792Z,98622.22
2023-02-12T06:27:16.392Z,98615.50
2023-02-12T06:29:47.927Z,98633.66
2023-02-12T06:32:19.641Z,98624.03
2023-02-12T06:34:51.255Z,98629.84
2023-02-12T06:37:22.834Z,98636.16
2023-02-12T06:39:54.487Z,98638.16
2023-02-12T06:42:26.046Z,98639.34
2023-02-12T06:44:57.679Z,98633.25
2023-02-12T06:47:29.263Z,98638.84
2023-02-12T06:50:00.893Z,98642.66
2023-02-12T06:52:34.811Z,98638.16
2023-02-12T06:55:06.768Z,98644.09
2023-02-12T06:57:38.370Z,98648.38
2023-02-12T07:00:11.065Z,98654.28
2023-02-12T07:02:42.657Z,98652.47
2023-02-12T07:05:14.287Z,98654.66
2023-02-12T07:07:46.057Z,98656.31
2023-02-12T07:10:18.758Z,98660.94
2023-02-12T07:12:50.385Z,98661.72
2023-02-12T07:15:21.989Z,98665.03
2023-02-12T07:17:53.645Z,98667.16
2023-02-12T07:20:25.285Z,98665.53
2023-02-12T07:22:57.104Z,98671.84
2023-02-12T07:25:28.740Z,98667.28
2023-02-12T07:28:00.400Z,98659.00
2023-02-12T07:30:32.091Z,98667.50
2023-02-12T07:33:03.908Z,98665.94
2023-02-12T07:35:35.546Z,98662.28
2023-02-12T07:38:07.111Z,98666.25
2023-02-12T07:40:38.829Z,98670.03
2023-02-12T07:43:15.147Z,98672.66
2023-02-12T07:45:46.820Z,98670.97
2023-02-12T07:48:18.390Z,98673.25
2023-02-12T07:50:49.998Z,98661.31
2023-02-12T07:53:21.533Z,98665.28
2023-02-12T07:55:53.088Z,98667.75
2023-02-12T07:58:24.768Z,98672.13
2023-02-12T08:00:56.295Z,98672.16
2023-02-12T08:03:28.868Z,98675.94
2023-02-12T08:06:00.377Z,98663.47
2023-02-12T08:08:31.924Z,98674.91
2023-02-12T08:11:03.564Z,98674.00
2023-02-12T08:13:36.948Z,98668.22
2023-02-12T08:16:11.862Z,98665.41
2023-02-12T08:18:43.722Z,98678.69
2023-02-12T08:21:18.850Z,98672.56
2023-02-12T08:23:50.876Z,98675.59
2023-02-12T08:26:24.128Z,98664.69
2023-02-12T08:28:59.468Z,98670.91
2023-02-12T08:31:34.692Z,98667.94
2023-02-12T08:34:06.339Z,98675.38
2023-02-12T08:36:40.147Z,98659.19
2023-02-12T08:39:11.912Z,98665.06
2023-02-12T08:41:44.629Z,98665.91
2023-02-12T08:44:17.252Z,98660.31
2023-02-12T08:46:53.802Z,98662.91
2023-02-12T08:49:28.222Z,98658.94
2023-02-12T08:52:00.775Z,98666.38
2023-02-12T08:54:32.433Z,98660.19
2023-02-12T08:57:04.150Z,98662.44
2023-02-12T08:59:35.726Z,98652.25
2023-02-12T09:02:10.721Z,98656.94
2023-02-12T09:04:42.298Z,98653.78
2023-02-12T09:07:13.887Z,98650.72
2023-02-12T09:09:45.604Z,98645.06
2023-02-12T09:12:17.180Z,98649.19
2023-02-12T09:14:48.694Z,98654.50
2023-02-12T09:17:20.425Z,98648.00
2023-02-12T09:19:52.203Z,98646.41
2023-02-12T09:22:23.712Z,98647.16
2023-02-12T09:24:55.259Z,98647.78
2023-02-12T09:27:27.541Z,98648.66
2023-02-12T09:30:00.199Z,98646.63
2023-02-12T09:32:31.763Z,98650.53
2023-02-12T09:35:03.418Z,98652.91
2023-02-12T09:37:35.057Z,98650.44
2023-02-12T09:40:07.595Z,98644.84
2023-02-12T09:43:00.282Z,98643.53
2023-02-12T09:45:46.287Z,98646.38
2023-02-12T09:48:42.948Z,98638.03
2023-02-12T09:51:14.852Z,98646.56
2023-02-12T09:54:01.529Z,98654.00
2023-02-12T09:56:37.207Z,98644.25
2023-02-12T09:59:09.524Z,98648.19
2023-02-12T10:01:41.158Z,98645.03
2023-02-12T10:04:13.036Z,98643.16
2023-02-12T10:07:01.703Z,98635.66
2023-02-12T10:09:45.338Z,98640.72
2023-02-12T10:12:44.754Z,98642.84
2023-02-12T10:15:34.431Z,98642.47
2023-02-12T10:18:36.625Z,98643.22
2023-02-12T10:21:17.193Z,98639.50
2023-02-12T10:24:06.206Z,98635.72
2023-02-12T10:26:40.114Z,98629.59
2023-02-12T10:29:18.910Z,98633.44
2023-02-12T10:31:58.734Z,98632.47
2023-02-12T10:34:36.224Z,98631.47
2023-02-12T10:37:37.100Z,98631.19
2023-02-12T10:40:21.573Z,98636.22
2023-02-12T10:42:54.817Z,98627.41
2023-02-12T10:45:39.097Z,98628.81
2023-02-12T10:48:15.298Z,98631.75
2023-02-12T10:50:56.952Z,98638.41
2023-02-12T10:53:38.474Z,98611.16
2023-02-12T10:56:12.883Z,98621.47
2023-02-12T10:58:50.363Z,98614.41
2023-02-12T11:01:27.826Z,98610.75
2023-02-12T11:04:19.045Z,98603.22
2023-02-12T11:06:58.570Z,98606.16
2023-02-12T11:09:39.943Z,98603.59
2023-02-12T11:12:31.113Z,98585.66
2023-02-12T11:15:13.399Z,98586.59
2023-02-12T11:18:03.689Z,98573.88
2023-02-12T11:20:48.796Z,98574.41
2023-02-12T11:23:38.972Z,98561.88
2023-02-12T11:26:20.012Z,98559.00
2023-02-12T11:28:55.999Z,98554.78
2023-02-12T11:31:31.023Z,98538.28
2023-02-12T11:34:16.616Z,98550.34
2023-02-12T11:36:53.625Z,98556.09
2023-02-12T11:39:36.360Z,98554.06
2023-02-12T11:42:25.860Z,98549.59
2023-02-12T11:44:59.748Z,98548.44
2023-02-12T11:47:36.113Z,98544.59
2023-02-12T11:50:29.014Z,98539.81
2023-02-12T11:53:04.921Z,98529.94
2023-02-12T11:55:41.027Z,98530.75
2023-02-12T11:58:23.450Z,98529.72
2023-02-12T12:01:03.816Z,98531.41
2023-02-12T12:03:44.347Z,98523.53
2023-02-12T12:06:46.885Z,98524.38
2023-02-12T12:09:28.415Z,98518.59
2023-02-12T12:12:15.700Z,98512.72
2023-02-12T12:14:53.092Z,98508.34
2023-02-12T12:17:45.589Z,98499.56
2023-02-12T12:20:22.929Z,98492.75
2023-02-12T12:23:07.773Z,98496.88
2023-02-12T12:25:52.619Z,98501.16
2023-02-12T12:28:39.404Z,98494.38
2023-02-12T12:31:37.115Z,98493.91
2023-02-12T12:34:15.684Z,98497.00
2023-02-12T12:36:56.008Z,98506.78
2023-02-12T12:39:43.835Z,98501.78
2023-02-12T12:42:45.999Z,98488.06
2023-02-12T12:45:51.650Z,98484.25
2023-02-12T12:48:55.256Z,98493.63
2023-02-12T12:51:41.127Z,98495.25
2023-02-12T12:54:21.490Z,98494.34
2023-02-12T12:57:19.180Z,98487.94
2023-02-12T13:00:01.909Z,98501.28
2023-02-12T13:03:16.349Z,98485.50
2023-02-12T13:05:57.379Z,98489.56
2023-02-12T13:08:44.890Z,98489.38
2023-02-12T13:11:38.966Z,98481.91
2023-02-12T13:14:28.556Z,98480.94
2023-02-12T13:17:21.003Z,98476.06
2023-02-12T13:20:12.180Z,98471.47
2023-02-12T13:22:52.816Z,98469.13
2023-02-12T13:26:04.608Z,98462.13
2023-02-12T13:28:49.044Z,98466.25
2023-02-12T13:31:34.575Z,98452.97
2023-02-12T13:34:14.644Z,98454.31
2023-02-12T13:36:49.376Z,98455.38
2023-02-12T13:39:41.008Z,98456.28
2023-02-12T13:42:56.936Z,98458.53
2023-02-12T13:45:56.828Z,98446.44
2023-02-12T13:48:54.830Z,98448.31
2023-02-12T13:51:32.544Z,98454.69
2023-02-12T13:54:49.267Z,98454.75
2023-02-12T13:57:21.878Z,98443.91
2023-02-12T13:59:55.513Z,98451.03
2023-02-12T14:02:33.113Z,98443.00
2023-02-12T14:05:24.675Z,98451.53
2023-02-12T14:08:01.230Z,98436.13
2023-02-12T14:10:40.242Z,98451.56
2023-02-12T14:13:15.063Z,98446.88
2023-02-12T14:15:53.245Z,98455.56
2023-02-12T14:18:35.929Z,98451.34
2023-02-12T14:21:27.587Z,98448.94
2023-02-12T14:24:37.398Z,98451.50
2023-02-12T14:27:24.945Z,98457.38
2023-02-12T14:30:12.011Z,98459.22
2023-02-12T14:32:52.703Z,98461.63
2023-02-12T14:35:27.056Z,98459.16
2023-02-12T14:38:02.150Z,98453.03
2023-02-12T14:40:36.603Z,98459.38
2023-02-12T14:43:40.744Z,98458.34
2023-02-12T14:46:24.279Z,98461.13
2023-02-12T14:49:00.435Z,98463.50
2023-02-12T14:51:34.747Z,98461.69
2023-02-12T14:54:20.147Z,98469.28
2023-02-12T14:56:53.000Z,98458.97
2023-02-12T14:59:27.991Z,98464.19
2023-02-12T15:02:02.859Z,98462.22
2023-02-12T15:04:38.388Z,98450.56
2023-02-12T15:07:17.024Z,98463.13
2023-02-12T15:10:03.025Z,98461.75
2023-02-12T15:12:47.256Z,98463.91
2023-02-12T15:15:34.315Z,98459.38
2023-02-12T15:18:38.959Z,98463.88
2023-02-12T15:21:20.767Z,98474.13
2023-02-12T15:24:03.634Z,98481.75
2023-02-12T15:26:50.361Z,98477.88
2023-02-12T15:29:30.220Z,98478.72
2023-02-12T15:32:06.453Z,98467.47
2023-02-12T15:34:38.534Z,98470.75
2023-02-12T15:37:29.773Z,98477.16
2023-02-12T15:40:03.239Z,98482.31
2023-02-12T15:42:37.858Z,98472.03
2023-02-12T15:45:15.388Z,98481.06
2023-02-12T15:48:09.485Z,98482.72
2023-02-12T15:50:55.775Z,98487.19
2023-02-12T15:53:29.389Z,98487.41
2023-02-12T15:56:03.616Z,98487.09
2023-02-12T15:58:46.927Z,98490.63
2023-02-12T16:01:24.447Z,98484.31
2023-02-12T16:04:02.761Z,98487.03
2023-02-12T16:06:36.616Z,98488.41
2023-02-12T16:09:17.989Z,98491.00
2023-02-12T16:11:50.490Z,98498.00
2023-02-12T16:14:27.795Z,98491.41
2023-02-12T16:16:59.857Z,98489.97
2023-02-12T16:19:32.232Z,98492.56
2023-02-12T16:22:14.085Z,98491.94
2023-02-12T16:24:49.999Z,98492.19
2023-02-12T16:27:34.314Z,98489.75
2023-02-12T16:30:25.120Z,98489.88
2023-02-12T16:32:57.331Z,98498.75
2023-02-12T16:35:34.852Z,98496.22
2023-02-12T16:38:45.349Z,98494.31
2023-02-12T16:41:20.110Z,98492.84
2023-02-12T16:43:54.717Z,98486.91
2023-02-12T16:46:28.894Z,98490.38
2023-02-12T16:49:02.556Z,98492.09
2023-02-12T16:51:36.532Z,98494.41
2023-02-12T16:54:28.477Z,98498.16
2023-02-12T16:57:01.504Z,98500.56
2023-02-12T16:59:33.120Z,98497.84
2023-02-12T17:02:14.206Z,98500.41
2023-02-12T17:04:45.777Z,98507.91
2023-02-12T17:07:24.382Z,98505.53
2023-02-12T17:09:55.988Z,98511.63
2023-02-12T17:12:28.267Z,98509.47
2023-02-12T17:15:04.142Z,98511.34
2023-02-12T17:17:35.741Z,98513.88
2023-02-12T17:20:07.833Z,98517.97
2023-02-12T17:22:45.311Z,98522.91
2023-02-12T17:25:17.211Z,98521.66
2023-02-12T17:27:48.858Z,98523.97
2023-02-12T17:30:20.806Z,98523.16
2023-02-12T17:32:52.679Z,98516.69
2023-02-12T17:35:24.324Z,98527.81
2023-02-12T17:37:55.976Z,98523.84
2023-02-12T17:40:27.572Z,98533.22
2023-02-12T17:42:59.208Z,98530.16
2023-02-12T17:45:31.157Z,98529.75
2023-02-12T17:48:02.940Z,98521.56
2023-02-12T17:50:34.525Z,98530.16
2023-02-12T17:53:06.602Z,98536.22
2023-02-12T17:55:40.234Z,98537.66
2023-02-12T17:58:11.883Z,98534.16
2023-02-12T18:00:43.422Z,98542.19
2023-02-12T18:03:15.140Z,98546.94
2023-02-12T18:05:46.830Z,98547.03
2023-02-12T18:08:18.472Z,98544.75
2023-02-12T18:10:50.117Z,98538.13
2023-02-12T18:13:21.928Z,98549.97
2023-02-12T18:15:53.613Z,98549.97
2023-02-12T18:18:25.318Z,98556.66
2023-02-12T18:20:57.183Z,98557.25
2023-02-12T18:23:29.211Z,98554.00
2023-02-12T18:26:14.893Z,98552.94
2023-02-12T18:28:46.772Z,98550.66
2023-02-12T18:31:19.517Z,98552.78
2023-02-12T18:33:51.574Z,98549.13
2023-02-12T18:36:23.274Z,98554.00
2023-02-12T18:38:54.875Z,98557.16
2023-02-12T18:41:32.481Z,98560.88
2023-02-12T18:44:04.186Z,98559.00
2023-02-12T18:46:35.812Z,98554.59
2023-02-12T18:49:08.457Z,98559.28
2023-02-12T18:51:40.115Z,98553.31
2023-02-12T18:54:13.618Z,98555.97
2023-02-12T18:56:46.495Z,98554.88
2023-02-12T18:59:19.793Z,98556.94
2023-02-12T19:01:51.904Z,98555.22
2023-02-12T19:04:24.480Z,98558.09
2023-02-12T19:06:56.273Z,98550.19
2023-02-12T19:09:27.865Z,98549.91
2023-02-12T19:12:00.001Z,98550.59
2023-02-12T19:14:31.742Z,98542.09
2023-02-12T19:17:03.513Z,98553.72
2023-02-12T19:19:35.188Z,98555.66
2023-02-12T19:22:06.863Z,98551.06
2023-02-12T19:24:46.722Z,98552.94
2023-02-12T19:27:18.797Z,98553.25
2023-02-12T19:29:50.402Z,98548.06
2023-02-12T19:32:22.001Z,98551.63
2023-02-12T19:34:53.799Z,98545.72
2023-02-12T19:37:25.560Z,98550.81
2023-02-12T19:39:57.225Z,98555.22
2023-02-12T19:42:28.878Z,98553.53
2023-02-12T19:45:00.506Z,98563.06
2023-02-12T19:47:32.140Z,98563.41
2023-02-12T19:50:04.101Z,98557.25
2023-02-12T19:52:36.542Z,98569.16
2023-02-12T19:55:08.341Z,98575.13
2023-02-12T19:57:40.468Z,98582.44
2023-02-12T20:00:12.974Z,98574.63
2023-02-12T20:02:44.612Z,98577.69
2023-02-12T20:05:16.304Z,98581.63
2023-02-12T20:07:47.936Z,98585.69
2023-02-12T20:10:19.718Z,98584.06
2023-02-12T20:12:51.387Z,98583.63
2023-02-12T20:15:22.978Z,98587.34
2023-02-12T20:17:54.602Z,98590.22
2023-02-12T20:20:26.167Z,98593.19
2023-02-12T20:22:57.894Z,98582.56
2023-02-12T20:25:29.509Z,98594.00
2023-02-12T20:28:01.087Z,98595.16
2023-02-12T20:30:32.643Z,98583.34
2023-02-12T20:33:04.183Z,98595.63
2023-02-12T20:35:36.827Z,98591.75
2023-02-12T20:38:08.452Z,98590.72
2023-02-12T20:40:40.100Z,98593.75
2023-02-12T20:43:11.704Z,98597.00
2023-02-12T20:45:43.356Z,98596.28
2023-02-12T20:48:15.014Z,98590.78
2023-02-12T20:50:46.774Z,98596.78
2023-02-12T20:53:18.409Z,98604.94
2023-02-12T20:55:50.064Z,98603.31
2023-02-12T20:58:21.660Z,98599.22
2023-02-12T21:00:53.262Z,98605.22
2023-02-12T21:06:01.901Z,98614.19
2023-02-12T21:08:36.301Z,98611.03
2023-02-12T21:11:15.507Z,98613.28
2023-02-12T21:13:58.755Z,98613.88
2023-02-12T21:16:37.794Z,98612.59
2023-02-12T21:19:09.410Z,98613.94
2023-02-12T21:21:43.145Z,98620.53
2023-02-12T21:24:18.341Z,98623.03
2023-02-12T21:26:51.949Z,98617.16
2023-02-12T21:29:24.055Z,98623.25
2023-02-12T21:31:55.771Z,98618.44
2023-02-12T21:34:27.531Z,98622.09
2023-02-12T21:36:59.114Z,98620.81
2023-02-12T21:39:30.862Z,98625.19
2023-02-12T21:42:03.805Z,98622.56
2023-02-12T21:44:35.691Z,98625.16
2023-02-12T21:47:07.837Z,98630.06
2023-02-12T21:49:39.398Z,98626.75
2023-02-12T21:52:11.107Z,98628.97
2023-02-12T21:54:42.681Z,98623.97
2023-02-12T21:57:14.214Z,98625.09
2023-02-12T21:59:45.787Z,98625.03
2023-02-12T22:02:17.350Z,98626.44
2023-02-12T22:04:49.735Z,98634.22
2023-02-12T22:07:22.231Z,98634.97
2023-02-12T22:09:55.984Z,98636.06
2023-02-12T22:12:27.733Z,98631.91
2023-02-12T22:14:59.345Z,98641.31
2023-02-12T22:17:32.229Z,98629.09
2023-02-12T22:20:04.188Z,98632.72
2023-02-12T22:22:36.677Z,98635.69
2023-02-12T22:25:08.433Z,98637.88
2023-02-12T22:27:40.045Z,98631.63
2023-02-12T22:30:11.941Z,98637.88
2023-02-12T22:32:43.569Z,98631.53
2023-02-12T22:35:15.210Z,98627.47
2023-02-12T22:37:46.841Z,98637.59
2023-02-12T22:40:18.508Z,98638.81
2023-02-12T22:42:50.076Z,98646.28
2023-02-12T22:45:21.664Z,98649.50
2023-02-12T22:47:53.228Z,98648.66
2023-02-12T22:50:24.823Z,98650.59
2023-02-12T22:52:56.415Z,98644.63
2023-02-12T22:55:27.994Z,98650.41
2023-02-12T22:57:59.573Z,98648.25
2023-02-12T23:00:31.419Z,98654.41
2023-02-12T23:03:03.096Z,98650.06
2023-02-12T23:05:39.300Z,98660.38
2023-02-12T23:08:11.000Z,98663.53
2023-02-12T23:10:42.637Z,98673.31
2023-02-12T23:13:27.886Z,98673.22
2023-02-12T23:16:00.844Z,98666.50
2023-02-12T23:18:33.153Z,98672.00
2023-02-12T23:21:04.936Z,98680.75
2023-02-12T23:23:36.546Z,98684.19
2023-02-12T23:26:10.958Z,98680.19
2023-02-12T23:28:42.572Z,98681.59
2023-02-12T23:31:14.566Z,98689.41
2023-02-12T23:33:46.218Z,98686.34
2023-02-12T23:36:17.794Z,98686.34
2023-02-12T23:38:49.348Z,98682.78
2023-02-12T23:41:20.990Z,98690.44
2023-02-12T23:43:52.757Z,98687.03
2023-02-12T23:46:24.528Z,98686.78
2023-02-12T23:48:56.150Z,98686.91
2023-02-12T23:51:27.839Z,98680.97
2023-02-12T23:53:59.532Z,98681.84
2023-02-12T23:56:31.156Z,98681.22
2023-02-12T23:59:02.756Z,98690.44
